sensor_id;sensor_type;location;lat;lon;timestamp;temperature;humidity
8676;DHT22;4375;52.486;13.424;2023-09-19T00:00:30;18.30;99.90
8676;DHT22;4375;52.486;13.424;2023-09-19T00:02:58;18.30;99.90
8676;DHT22;4375;52.486;13.424;2023-09-19T00:05:29;18.30;99.90
8676;DHT22;4375;52.486;13.424;2023-09-19T00:08:00;18.30;99.90
8676;DHT22;4375;52.486;13.424;2023-09-19T00:10:27;18.20;99.90
8676;DHT22;4375;52.486;13.424;2023-09-19T00:13:00;18.20;99.90
8676;DHT22;4375;52.486;13.424;2023-09-19T00:15:30;18.20;99.90
8676;DHT22;4375;52.486;13.424;2023-09-19T00:17:58;18.20;99.90
8676;DHT22;4375;52.486;13.424;2023-09-19T00:20:24;18.20;99.90
8676;DHT22;4375;52.486;13.424;2023-09-19T00:22:50;18.20;99.90
8676;DHT22;4375;52.486;13.424;2023-09-19T00:25:20;18.20;99.90
8676;DHT22;4375;52.486;13.424;2023-09-19T00:27:46;18.10;99.90
8676;DHT22;4375;52.486;13.424;2023-09-19T00:30:13;18.10;99.90
8676;DHT22;4375;52.486;13.424;2023-09-19T00:32:46;18.10;99.90
8676;DHT22;4375;52.486;13.424;2023-09-19T00:35:15;18.00;99.90
8676;DHT22;4375;52.486;13.424;2023-09-19T00:37:41;18.00;99.90
8676;DHT22;4375;52.486;13.424;2023-09-19T00:40:08;18.00;99.90
8676;DHT22;4375;52.486;13.424;2023-09-19T00:42:41;18.00;99.90
8676;DHT22;4375;52.486;13.424;2023-09-19T00:45:08;18.00;99.90
8676;DHT22;4375;52.486;13.424;2023-09-19T00:47:36;18.00;99.90
8676;DHT22;4375;52.486;13.424;2023-09-19T00:50:04;18.00;99.90
8676;DHT22;4375;52.486;13.424;2023-09-19T00:52:33;18.00;99.90
8676;DHT22;4375;52.486;13.424;2023-09-19T00:54:59;18.00;99.90
8676;DHT22;4375;52.486;13.424;2023-09-19T00:57:25;18.00;99.90
8676;DHT22;4375;52.486;13.424;2023-09-19T00:59:52;18.00;99.90
8676;DHT22;4375;52.486;13.424;2023-09-19T01:02:19;17.90;99.90
8676;DHT22;4375;52.486;13.424;2023-09-19T01:04:45;17.90;99.90
8676;DHT22;4375;52.486;13.424;2023-09-19T01:07:11;17.90;99.90
8676;DHT22;4375;52.486;13.424;2023-09-19T01:09:36;17.80;99.90
8676;DHT22;4375;52.486;13.424;2023-09-19T01:12:07;17.80;99.90
8676;DHT22;4375;52.486;13.424;2023-09-19T01:15:11;17.80;99.90
8676;DHT22;4375;52.486;13.424;2023-09-19T01:17:56;17.80;99.90
8676;DHT22;4375;52.486;13.424;2023-09-19T01:20:39;17.80;99.90
8676;DHT22;4375;52.486;13.424;2023-09-19T01:23:22;17.80;99.90
8676;DHT22;4375;52.486;13.424;2023-09-19T01:26:17;17.70;99.90
8676;DHT22;4375;52.486;13.424;2023-09-19T01:31:40;17.70;99.90
8676;DHT22;4375;52.486;13.424;2023-09-19T01:34:07;17.70;99.90
8676;DHT22;4375;52.486;13.424;2023-09-19T01:36:38;17.70;99.90
8676;DHT22;4375;52.486;13.424;2023-09-19T01:39:13;17.80;99.90
8676;DHT22;4375;52.486;13.424;2023-09-19T01:41:50;17.80;99.90
8676;DHT22;4375;52.486;13.424;2023-09-19T01:44:44;17.80;99.90
8676;DHT22;4375;52.486;13.424;2023-09-19T01:47:23;17.90;99.90
8676;DHT22;4375;52.486;13.424;2023-09-19T01:50:17;17.90;99.90
8676;DHT22;4375;52.486;13.424;2023-09-19T01:52:57;17.90;99.90
8676;DHT22;4375;52.486;13.424;2023-09-19T01:55:26;17.90;99.90
8676;DHT22;4375;52.486;13.424;2023-09-19T02:00:26;18.00;99.90
8676;DHT22;4375;52.486;13.424;2023-09-19T02:02:56;17.90;99.90
8676;DHT22;4375;52.486;13.424;2023-09-19T02:05:24;17.90;99.90
8676;DHT22;4375;52.486;13.424;2023-09-19T02:07:51;17.80;99.90
8676;DHT22;4375;52.486;13.424;2023-09-19T02:10:18;17.80;99.90
8676;DHT22;4375;52.486;13.424;2023-09-19T02:12:44;17.80;99.90
8676;DHT22;4375;52.486;13.424;2023-09-19T02:15:10;17.80;99.90
8676;DHT22;4375;52.486;13.424;2023-09-19T02:17:36;17.70;99.90
8676;DHT22;4375;52.486;13.424;2023-09-19T02:20:01;17.70;99.90
8676;DHT22;4375;52.486;13.424;2023-09-19T02:22:29;17.70;99.90
8676;DHT22;4375;52.486;13.424;2023-09-19T02:24:55;17.70;99.90
8676;DHT22;4375;52.486;13.424;2023-09-19T02:27:23;17.70;99.90
8676;DHT22;4375;52.486;13.424;2023-09-19T02:29:49;17.70;99.90
8676;DHT22;4375;52.486;13.424;2023-09-19T02:32:15;17.70;99.90
8676;DHT22;4375;52.486;13.424;2023-09-19T02:34:43;17.70;99.90
8676;DHT22;4375;52.486;13.424;2023-09-19T02:37:10;17.70;99.90
8676;DHT22;4375;52.486;13.424;2023-09-19T02:39:36;17.70;99.90
8676;DHT22;4375;52.486;13.424;2023-09-19T02:42:01;17.60;99.90
8676;DHT22;4375;52.486;13.424;2023-09-19T02:44:29;17.60;99.90
8676;DHT22;4375;52.486;13.424;2023-09-19T02:46:55;17.60;99.90
8676;DHT22;4375;52.486;13.424;2023-09-19T02:49:22;17.60;99.90
8676;DHT22;4375;52.486;13.424;2023-09-19T02:51:49;17.50;99.90
8676;DHT22;4375;52.486;13.424;2023-09-19T02:54:14;17.50;99.90
8676;DHT22;4375;52.486;13.424;2023-09-19T02:56:41;17.60;99.90
8676;DHT22;4375;52.486;13.424;2023-09-19T02:59:07;17.50;99.90
8676;DHT22;4375;52.486;13.424;2023-09-19T03:01:35;17.50;99.90
8676;DHT22;4375;52.486;13.424;2023-09-19T03:04:02;17.50;99.90
8676;DHT22;4375;52.486;13.424;2023-09-19T03:06:28;17.50;99.90
8676;DHT22;4375;52.486;13.424;2023-09-19T03:08:56;17.60;99.90
8676;DHT22;4375;52.486;13.424;2023-09-19T03:11:22;17.60;99.90
8676;DHT22;4375;52.486;13.424;2023-09-19T03:13:52;17.60;99.90
8676;DHT22;4375;52.486;13.424;2023-09-19T03:16:18;17.70;99.90
8676;DHT22;4375;52.486;13.424;2023-09-19T03:18:47;17.60;99.90
8676;DHT22;4375;52.486;13.424;2023-09-19T03:21:15;17.60;99.90
8676;DHT22;4375;52.486;13.424;2023-09-19T03:23:40;17.70;99.90
8676;DHT22;4375;52.486;13.424;2023-09-19T03:26:06;17.60;99.90
8676;DHT22;4375;52.486;13.424;2023-09-19T03:28:33;17.60;99.90
8676;DHT22;4375;52.486;13.424;2023-09-19T03:31:04;17.60;99.90
8676;DHT22;4375;52.486;13.424;2023-09-19T03:33:31;17.60;99.90
8676;DHT22;4375;52.486;13.424;2023-09-19T03:36:00;17.70;99.90
8676;DHT22;4375;52.486;13.424;2023-09-19T03:38:29;17.60;99.90
8676;DHT22;4375;52.486;13.424;2023-09-19T03:40:55;17.60;99.90
8676;DHT22;4375;52.486;13.424;2023-09-19T03:43:21;17.60;99.90
8676;DHT22;4375;52.486;13.424;2023-09-19T03:45:46;17.60;99.90
8676;DHT22;4375;52.486;13.424;2023-09-19T03:48:12;17.60;99.90
8676;DHT22;4375;52.486;13.424;2023-09-19T03:50:38;17.60;99.90
8676;DHT22;4375;52.486;13.424;2023-09-19T03:53:04;17.60;99.90
8676;DHT22;4375;52.486;13.424;2023-09-19T03:55:32;17.70;99.90
8676;DHT22;4375;52.486;13.424;2023-09-19T03:57:58;17.60;99.90
8676;DHT22;4375;52.486;13.424;2023-09-19T04:00:24;17.60;99.90
8676;DHT22;4375;52.486;13.424;2023-09-19T04:02:51;17.60;99.90
8676;DHT22;4375;52.486;13.424;2023-09-19T04:05:17;17.60;99.90
8676;DHT22;4375;52.486;13.424;2023-09-19T04:07:43;17.50;99.90
8676;DHT22;4375;52.486;13.424;2023-09-19T04:10:09;17.50;99.90
8676;DHT22;4375;52.486;13.424;2023-09-19T04:12:38;17.50;99.90
8676;DHT22;4375;52.486;13.424;2023-09-19T04:15:05;17.50;99.90
8676;DHT22;4375;52.486;13.424;2023-09-19T04:17:31;17.50;99.90
8676;DHT22;4375;52.486;13.424;2023-09-19T04:19:58;17.50;99.90
8676;DHT22;4375;52.486;13.424;2023-09-19T04:22:24;17.50;99.90
8676;DHT22;4375;52.486;13.424;2023-09-19T04:24:50;17.40;99.90
8676;DHT22;4375;52.486;13.424;2023-09-19T04:27:15;17.50;99.90
8676;DHT22;4375;52.486;13.424;2023-09-19T04:29:41;17.50;99.90
8676;DHT22;4375;52.486;13.424;2023-09-19T04:32:07;17.50;99.90
8676;DHT22;4375;52.486;13.424;2023-09-19T04:34:33;17.50;99.90
8676;DHT22;4375;52.486;13.424;2023-09-19T04:37:00;17.50;99.90
8676;DHT22;4375;52.486;13.424;2023-09-19T04:39:26;17.50;99.90
8676;DHT22;4375;52.486;13.424;2023-09-19T04:41:52;17.50;99.90
8676;DHT22;4375;52.486;13.424;2023-09-19T04:44:18;17.40;99.90
8676;DHT22;4375;52.486;13.424;2023-09-19T04:46:44;17.50;99.90
8676;DHT22;4375;52.486;13.424;2023-09-19T04:49:12;17.50;99.90
8676;DHT22;4375;52.486;13.424;2023-09-19T04:51:38;17.50;99.90
8676;DHT22;4375;52.486;13.424;2023-09-19T04:54:04;17.40;99.90
8676;DHT22;4375;52.486;13.424;2023-09-19T04:56:29;17.40;99.90
8676;DHT22;4375;52.486;13.424;2023-09-19T04:58:56;17.40;99.90
8676;DHT22;4375;52.486;13.424;2023-09-19T05:01:23;17.40;99.90
8676;DHT22;4375;52.486;13.424;2023-09-19T05:03:49;17.40;99.90
8676;DHT22;4375;52.486;13.424;2023-09-19T05:06:18;17.40;99.90
8676;DHT22;4375;52.486;13.424;2023-09-19T05:08:46;17.30;99.90
8676;DHT22;4375;52.486;13.424;2023-09-19T05:11:12;17.30;99.90
8676;DHT22;4375;52.486;13.424;2023-09-19T05:13:38;17.40;99.90
8676;DHT22;4375;52.486;13.424;2023-09-19T05:16:03;17.30;99.90
8676;DHT22;4375;52.486;13.424;2023-09-19T05:18:29;17.30;99.90
8676;DHT22;4375;52.486;13.424;2023-09-19T05:20:55;17.30;99.90
8676;DHT22;4375;52.486;13.424;2023-09-19T05:23:21;17.30;99.90
8676;DHT22;4375;52.486;13.424;2023-09-19T05:25:47;17.30;99.90
8676;DHT22;4375;52.486;13.424;2023-09-19T05:28:12;17.30;99.90
8676;DHT22;4375;52.486;13.424;2023-09-19T05:30:40;17.30;99.90
8676;DHT22;4375;52.486;13.424;2023-09-19T05:33:08;17.30;99.90
8676;DHT22;4375;52.486;13.424;2023-09-19T05:35:33;17.30;99.90
8676;DHT22;4375;52.486;13.424;2023-09-19T05:38:00;17.30;99.90
8676;DHT22;4375;52.486;13.424;2023-09-19T05:40:26;17.40;99.90
8676;DHT22;4375;52.486;13.424;2023-09-19T05:42:52;17.30;99.90
8676;DHT22;4375;52.486;13.424;2023-09-19T05:45:18;17.30;99.90
8676;DHT22;4375;52.486;13.424;2023-09-19T05:47:50;17.30;99.90
8676;DHT22;4375;52.486;13.424;2023-09-19T05:50:16;17.30;99.90
8676;DHT22;4375;52.486;13.424;2023-09-19T05:52:42;17.30;99.90
8676;DHT22;4375;52.486;13.424;2023-09-19T05:55:11;17.30;99.90
8676;DHT22;4375;52.486;13.424;2023-09-19T05:57:37;17.30;99.90
8676;DHT22;4375;52.486;13.424;2023-09-19T06:00:08;17.20;99.90
8676;DHT22;4375;52.486;13.424;2023-09-19T06:02:36;17.10;99.90
8676;DHT22;4375;52.486;13.424;2023-09-19T06:05:06;17.20;99.90
8676;DHT22;4375;52.486;13.424;2023-09-19T06:07:35;17.20;99.90
8676;DHT22;4375;52.486;13.424;2023-09-19T06:10:03;17.20;99.90
8676;DHT22;4375;52.486;13.424;2023-09-19T06:12:31;17.20;99.90
8676;DHT22;4375;52.486;13.424;2023-09-19T06:14:59;17.30;99.90
8676;DHT22;4375;52.486;13.424;2023-09-19T06:17:25;17.30;99.90
8676;DHT22;4375;52.486;13.424;2023-09-19T06:19:52;17.30;99.90
8676;DHT22;4375;52.486;13.424;2023-09-19T06:22:18;17.20;99.90
8676;DHT22;4375;52.486;13.424;2023-09-19T06:24:44;17.20;99.90
8676;DHT22;4375;52.486;13.424;2023-09-19T06:27:10;17.30;99.90
8676;DHT22;4375;52.486;13.424;2023-09-19T06:29:35;17.30;99.90
8676;DHT22;4375;52.486;13.424;2023-09-19T06:32:09;17.30;99.90
8676;DHT22;4375;52.486;13.424;2023-09-19T06:34:35;17.20;99.90
8676;DHT22;4375;52.486;13.424;2023-09-19T06:37:01;17.30;99.90
8676;DHT22;4375;52.486;13.424;2023-09-19T06:39:28;17.30;99.90
8676;DHT22;4375;52.486;13.424;2023-09-19T06:41:54;17.40;99.90
8676;DHT22;4375;52.486;13.424;2023-09-19T06:44:20;17.40;99.90
8676;DHT22;4375;52.486;13.424;2023-09-19T06:46:50;17.40;99.90
8676;DHT22;4375;52.486;13.424;2023-09-19T06:49:17;17.50;99.90
8676;DHT22;4375;52.486;13.424;2023-09-19T06:51:43;17.60;99.90
8676;DHT22;4375;52.486;13.424;2023-09-19T06:54:09;17.60;99.90
8676;DHT22;4375;52.486;13.424;2023-09-19T06:56:35;17.70;99.90
8676;DHT22;4375;52.486;13.424;2023-09-19T06:59:00;17.80;99.90
8676;DHT22;4375;52.486;13.424;2023-09-19T07:01:28;17.80;99.90
8676;DHT22;4375;52.486;13.424;2023-09-19T07:03:53;17.90;99.90
8676;DHT22;4375;52.486;13.424;2023-09-19T07:06:20;18.00;99.90
8676;DHT22;4375;52.486;13.424;2023-09-19T07:08:45;18.20;99.90
8676;DHT22;4375;52.486;13.424;2023-09-19T07:11:11;18.40;99.90
8676;DHT22;4375;52.486;13.424;2023-09-19T07:13:38;18.50;99.90
8676;DHT22;4375;52.486;13.424;2023-09-19T07:16:04;18.70;99.90
8676;DHT22;4375;52.486;13.424;2023-09-19T07:18:30;19.00;99.90
8676;DHT22;4375;52.486;13.424;2023-09-19T07:20:57;19.20;99.90
8676;DHT22;4375;52.486;13.424;2023-09-19T07:23:30;19.10;99.90
8676;DHT22;4375;52.486;13.424;2023-09-19T07:26:00;19.40;99.90
8676;DHT22;4375;52.486;13.424;2023-09-19T07:28:26;19.70;99.90
8676;DHT22;4375;52.486;13.424;2023-09-19T07:30:53;19.80;99.90
8676;DHT22;4375;52.486;13.424;2023-09-19T07:33:19;19.90;99.90
8676;DHT22;4375;52.486;13.424;2023-09-19T07:35:46;19.80;99.90
8676;DHT22;4375;52.486;13.424;2023-09-19T07:38:12;20.00;99.90
8676;DHT22;4375;52.486;13.424;2023-09-19T07:40:38;20.10;99.90
8676;DHT22;4375;52.486;13.424;2023-09-19T07:43:03;20.10;99.90
8676;DHT22;4375;52.486;13.424;2023-09-19T07:45:30;20.10;99.90
8676;DHT22;4375;52.486;13.424;2023-09-19T07:47:57;20.10;99.90
8676;DHT22;4375;52.486;13.424;2023-09-19T07:50:23;20.00;99.90
8676;DHT22;4375;52.486;13.424;2023-09-19T07:52:49;20.00;99.90
8676;DHT22;4375;52.486;13.424;2023-09-19T07:55:19;20.00;99.90
8676;DHT22;4375;52.486;13.424;2023-09-19T07:57:48;20.00;99.90
8676;DHT22;4375;52.486;13.424;2023-09-19T08:00:14;20.20;99.90
8676;DHT22;4375;52.486;13.424;2023-09-19T08:02:40;20.40;99.90
8676;DHT22;4375;52.486;13.424;2023-09-19T08:05:08;20.50;99.90
8676;DHT22;4375;52.486;13.424;2023-09-19T08:07:41;20.70;99.90
8676;DHT22;4375;52.486;13.424;2023-09-19T08:10:08;21.10;99.90
8676;DHT22;4375;52.486;13.424;2023-09-19T08:12:36;21.30;99.90
8676;DHT22;4375;52.486;13.424;2023-09-19T08:15:03;21.30;99.90
8676;DHT22;4375;52.486;13.424;2023-09-19T08:17:35;21.20;99.90
8676;DHT22;4375;52.486;13.424;2023-09-19T08:20:01;21.40;99.90
8676;DHT22;4375;52.486;13.424;2023-09-19T08:22:30;21.30;99.90
8676;DHT22;4375;52.486;13.424;2023-09-19T08:24:58;21.10;99.90
8676;DHT22;4375;52.486;13.424;2023-09-19T08:27:24;20.80;99.90
8676;DHT22;4375;52.486;13.424;2023-09-19T08:29:53;20.80;99.90
8676;DHT22;4375;52.486;13.424;2023-09-19T08:32:19;20.80;99.90
8676;DHT22;4375;52.486;13.424;2023-09-19T08:34:50;20.70;99.90
8676;DHT22;4375;52.486;13.424;2023-09-19T08:37:15;20.80;99.90
8676;DHT22;4375;52.486;13.424;2023-09-19T08:39:44;20.90;99.90
8676;DHT22;4375;52.486;13.424;2023-09-19T08:42:10;21.00;99.90
8676;DHT22;4375;52.486;13.424;2023-09-19T08:44:38;22.00;99.90
8676;DHT22;4375;52.486;13.424;2023-09-19T08:47:10;22.90;99.90
8676;DHT22;4375;52.486;13.424;2023-09-19T08:50:01;23.30;99.90
8676;DHT22;4375;52.486;13.424;2023-09-19T08:52:37;23.10;99.90
8676;DHT22;4375;52.486;13.424;2023-09-19T08:55:06;23.70;99.90
8676;DHT22;4375;52.486;13.424;2023-09-19T08:57:36;24.20;99.90
8676;DHT22;4375;52.486;13.424;2023-09-19T09:00:08;24.70;99.90
8676;DHT22;4375;52.486;13.424;2023-09-19T09:02:40;25.20;99.90
8676;DHT22;4375;52.486;13.424;2023-09-19T09:05:09;24.40;99.90
8676;DHT22;4375;52.486;13.424;2023-09-19T09:07:40;23.80;99.90
8676;DHT22;4375;52.486;13.424;2023-09-19T09:10:07;23.20;99.90
8676;DHT22;4375;52.486;13.424;2023-09-19T09:12:35;22.40;99.90
8676;DHT22;4375;52.486;13.424;2023-09-19T09:15:03;22.20;99.90
8676;DHT22;4375;52.486;13.424;2023-09-19T09:17:30;22.10;99.90
8676;DHT22;4375;52.486;13.424;2023-09-19T09:19:56;21.80;99.90
8676;DHT22;4375;52.486;13.424;2023-09-19T09:22:22;21.70;99.90
8676;DHT22;4375;52.486;13.424;2023-09-19T09:24:58;21.60;99.90
8676;DHT22;4375;52.486;13.424;2023-09-19T09:27:24;21.60;99.90
8676;DHT22;4375;52.486;13.424;2023-09-19T09:29:51;21.70;99.90
8676;DHT22;4375;52.486;13.424;2023-09-19T09:32:28;21.70;99.90
8676;DHT22;4375;52.486;13.424;2023-09-19T09:35:06;21.80;99.90
8676;DHT22;4375;52.486;13.424;2023-09-19T09:37:35;22.00;99.90
8676;DHT22;4375;52.486;13.424;2023-09-19T09:40:04;21.90;99.90
8676;DHT22;4375;52.486;13.424;2023-09-19T09:42:56;21.90;99.90
8676;DHT22;4375;52.486;13.424;2023-09-19T09:45:25;21.90;99.90
8676;DHT22;4375;52.486;13.424;2023-09-19T09:48:03;21.70;99.90
8676;DHT22;4375;52.486;13.424;2023-09-19T09:50:36;21.50;99.90
8676;DHT22;4375;52.486;13.424;2023-09-19T09:58:28;20.80;99.90
8676;DHT22;4375;52.486;13.424;2023-09-19T10:01:04;20.70;99.90
8676;DHT22;4375;52.486;13.424;2023-09-19T10:03:41;20.70;99.90
8676;DHT22;4375;52.486;13.424;2023-09-19T10:06:14;20.40;99.90
8676;DHT22;4375;52.486;13.424;2023-09-19T10:09:07;20.50;99.90
8676;DHT22;4375;52.486;13.424;2023-09-19T10:11:44;20.60;99.90
8676;DHT22;4375;52.486;13.424;2023-09-19T10:14:11;20.70;99.90
8676;DHT22;4375;52.486;13.424;2023-09-19T10:16:41;20.90;99.90
8676;DHT22;4375;52.486;13.424;2023-09-19T10:19:10;21.10;99.90
8676;DHT22;4375;52.486;13.424;2023-09-19T10:21:41;21.00;99.90
8676;DHT22;4375;52.486;13.424;2023-09-19T10:24:09;21.10;99.90
8676;DHT22;4375;52.486;13.424;2023-09-19T10:26:36;21.00;99.90
8676;DHT22;4375;52.486;13.424;2023-09-19T10:29:06;20.90;99.90
8676;DHT22;4375;52.486;13.424;2023-09-19T10:31:33;20.80;99.90
8676;DHT22;4375;52.486;13.424;2023-09-19T10:34:03;20.70;99.90
8676;DHT22;4375;52.486;13.424;2023-09-19T10:36:33;20.70;99.90
8676;DHT22;4375;52.486;13.424;2023-09-19T10:39:02;20.90;99.90
8676;DHT22;4375;52.486;13.424;2023-09-19T10:41:34;21.10;99.90
8676;DHT22;4375;52.486;13.424;2023-09-19T10:44:03;21.20;99.90
8676;DHT22;4375;52.486;13.424;2023-09-19T10:46:34;21.20;99.90
8676;DHT22;4375;52.486;13.424;2023-09-19T10:49:00;21.20;99.90
8676;DHT22;4375;52.486;13.424;2023-09-19T10:51:30;21.20;99.90
8676;DHT22;4375;52.486;13.424;2023-09-19T10:54:10;21.10;99.90
8676;DHT22;4375;52.486;13.424;2023-09-19T10:56:49;21.00;99.90
8676;DHT22;4375;52.486;13.424;2023-09-19T10:59:19;21.00;99.90
8676;DHT22;4375;52.486;13.424;2023-09-19T11:01:53;20.90;99.90
8676;DHT22;4375;52.486;13.424;2023-09-19T11:04:27;20.90;99.90
8676;DHT22;4375;52.486;13.424;2023-09-19T11:09:46;20.90;99.90
8676;DHT22;4375;52.486;13.424;2023-09-19T11:15:00;20.90;99.90
8676;DHT22;4375;52.486;13.424;2023-09-19T11:17:32;20.80;99.90
8676;DHT22;4375;52.486;13.424;2023-09-19T11:33:22;21.00;99.90
8676;DHT22;4375;52.486;13.424;2023-09-19T11:43:50;21.00;99.90
8676;DHT22;4375;52.486;13.424;2023-09-19T11:46:21;21.00;99.90
8676;DHT22;4375;52.486;13.424;2023-09-19T11:48:48;21.20;99.90
8676;DHT22;4375;52.486;13.424;2023-09-19T11:53:46;21.10;99.90
8676;DHT22;4375;52.486;13.424;2023-09-19T11:56:22;21.20;99.90
8676;DHT22;4375;52.486;13.424;2023-09-19T11:58:54;21.30;99.90
8676;DHT22;4375;52.486;13.424;2023-09-19T12:03:55;21.20;99.90
8676;DHT22;4375;52.486;13.424;2023-09-19T12:06:28;21.30;99.90
8676;DHT22;4375;52.486;13.424;2023-09-19T12:09:02;21.20;99.90
8676;DHT22;4375;52.486;13.424;2023-09-19T12:11:32;21.20;99.90
8676;DHT22;4375;52.486;13.424;2023-09-19T12:13:58;21.20;99.90
8676;DHT22;4375;52.486;13.424;2023-09-19T12:16:26;21.20;99.90
8676;DHT22;4375;52.486;13.424;2023-09-19T12:18:56;21.20;99.90
8676;DHT22;4375;52.486;13.424;2023-09-19T12:21:29;21.30;99.90
8676;DHT22;4375;52.486;13.424;2023-09-19T12:26:38;21.30;99.90
8676;DHT22;4375;52.486;13.424;2023-09-19T12:29:05;21.30;99.90
8676;DHT22;4375;52.486;13.424;2023-09-19T12:31:31;21.40;99.90
8676;DHT22;4375;52.486;13.424;2023-09-19T12:34:01;21.30;99.90
8676;DHT22;4375;52.486;13.424;2023-09-19T12:36:27;21.30;99.90
8676;DHT22;4375;52.486;13.424;2023-09-19T12:38:56;21.30;99.90
8676;DHT22;4375;52.486;13.424;2023-09-19T12:41:25;21.30;99.90
8676;DHT22;4375;52.486;13.424;2023-09-19T12:43:52;21.30;99.90
8676;DHT22;4375;52.486;13.424;2023-09-19T12:46:22;21.30;99.90
8676;DHT22;4375;52.486;13.424;2023-09-19T12:49:17;21.40;99.90
8676;DHT22;4375;52.486;13.424;2023-09-19T12:51:43;21.50;99.90
8676;DHT22;4375;52.486;13.424;2023-09-19T12:54:09;21.30;99.90
8676;DHT22;4375;52.486;13.424;2023-09-19T12:56:41;21.40;99.90
8676;DHT22;4375;52.486;13.424;2023-09-19T12:59:13;21.40;99.90
8676;DHT22;4375;52.486;13.424;2023-09-19T13:01:40;21.40;99.90
8676;DHT22;4375;52.486;13.424;2023-09-19T13:04:32;21.50;99.90
8676;DHT22;4375;52.486;13.424;2023-09-19T13:07:41;21.50;99.90
8676;DHT22;4375;52.486;13.424;2023-09-19T13:10:11;21.60;99.90
8676;DHT22;4375;52.486;13.424;2023-09-19T13:12:41;21.70;99.90
8676;DHT22;4375;52.486;13.424;2023-09-19T13:15:15;21.80;99.90
8676;DHT22;4375;52.486;13.424;2023-09-19T13:17:49;21.70;99.90
8676;DHT22;4375;52.486;13.424;2023-09-19T13:20:25;21.70;99.90
8676;DHT22;4375;52.486;13.424;2023-09-19T13:22:55;21.80;99.90
8676;DHT22;4375;52.486;13.424;2023-09-19T13:25:25;21.80;99.90
8676;DHT22;4375;52.486;13.424;2023-09-19T13:27:57;21.70;99.90
8676;DHT22;4375;52.486;13.424;2023-09-19T13:30:25;21.70;99.90
8676;DHT22;4375;52.486;13.424;2023-09-19T13:35:52;21.60;99.90
8676;DHT22;4375;52.486;13.424;2023-09-19T13:38:18;21.60;99.90
8676;DHT22;4375;52.486;13.424;2023-09-19T13:40:47;21.70;99.90
8676;DHT22;4375;52.486;13.424;2023-09-19T13:43:13;21.50;99.90
8676;DHT22;4375;52.486;13.424;2023-09-19T13:48:41;21.50;99.90
8676;DHT22;4375;52.486;13.424;2023-09-19T13:51:06;21.40;99.90
8676;DHT22;4375;52.486;13.424;2023-09-19T13:53:32;21.50;99.90
8676;DHT22;4375;52.486;13.424;2023-09-19T13:55:58;21.40;99.90
8676;DHT22;4375;52.486;13.424;2023-09-19T13:58:23;21.40;99.90
8676;DHT22;4375;52.486;13.424;2023-09-19T14:00:52;21.40;99.90
8676;DHT22;4375;52.486;13.424;2023-09-19T14:03:20;21.50;99.90
8676;DHT22;4375;52.486;13.424;2023-09-19T14:05:58;21.50;99.90
8676;DHT22;4375;52.486;13.424;2023-09-19T14:08:24;21.40;99.90
8676;DHT22;4375;52.486;13.424;2023-09-19T14:10:50;21.50;99.90
8676;DHT22;4375;52.486;13.424;2023-09-19T14:13:16;21.60;99.90
8676;DHT22;4375;52.486;13.424;2023-09-19T14:15:41;21.50;99.90
8676;DHT22;4375;52.486;13.424;2023-09-19T14:18:07;21.30;99.90
8676;DHT22;4375;52.486;13.424;2023-09-19T14:20:38;21.40;99.90
8676;DHT22;4375;52.486;13.424;2023-09-19T14:23:05;21.40;99.90
8676;DHT22;4375;52.486;13.424;2023-09-19T14:25:34;21.40;99.90
8676;DHT22;4375;52.486;13.424;2023-09-19T14:28:00;21.50;99.90
8676;DHT22;4375;52.486;13.424;2023-09-19T14:30:26;21.50;99.90
8676;DHT22;4375;52.486;13.424;2023-09-19T14:32:53;21.50;99.90
8676;DHT22;4375;52.486;13.424;2023-09-19T14:35:19;21.50;99.90
8676;DHT22;4375;52.486;13.424;2023-09-19T14:37:45;21.60;99.90
8676;DHT22;4375;52.486;13.424;2023-09-19T14:40:11;21.50;99.90
8676;DHT22;4375;52.486;13.424;2023-09-19T14:42:39;21.40;99.90
8676;DHT22;4375;52.486;13.424;2023-09-19T14:45:05;21.40;99.90
8676;DHT22;4375;52.486;13.424;2023-09-19T14:47:32;21.30;99.90
8676;DHT22;4375;52.486;13.424;2023-09-19T14:50:02;21.10;99.90
8676;DHT22;4375;52.486;13.424;2023-09-19T14:52:34;21.10;99.90
8676;DHT22;4375;52.486;13.424;2023-09-19T14:55:01;21.10;99.90
8676;DHT22;4375;52.486;13.424;2023-09-19T14:57:27;21.10;99.90
8676;DHT22;4375;52.486;13.424;2023-09-19T14:59:53;21.00;99.90
8676;DHT22;4375;52.486;13.424;2023-09-19T15:02:19;21.00;99.90
8676;DHT22;4375;52.486;13.424;2023-09-19T15:04:46;21.00;99.90
8676;DHT22;4375;52.486;13.424;2023-09-19T15:07:15;20.90;99.90
8676;DHT22;4375;52.486;13.424;2023-09-19T15:09:42;20.90;99.90
8676;DHT22;4375;52.486;13.424;2023-09-19T15:12:08;20.90;99.90
8676;DHT22;4375;52.486;13.424;2023-09-19T15:14:34;20.90;99.90
8676;DHT22;4375;52.486;13.424;2023-09-19T15:17:00;20.90;99.90
8676;DHT22;4375;52.486;13.424;2023-09-19T15:19:25;20.90;99.90
8676;DHT22;4375;52.486;13.424;2023-09-19T15:21:51;20.80;99.90
8676;DHT22;4375;52.486;13.424;2023-09-19T15:24:17;20.80;99.90
8676;DHT22;4375;52.486;13.424;2023-09-19T15:26:43;20.70;99.90
8676;DHT22;4375;52.486;13.424;2023-09-19T15:29:10;20.70;99.90
8676;DHT22;4375;52.486;13.424;2023-09-19T15:31:36;20.70;99.90
8676;DHT22;4375;52.486;13.424;2023-09-19T15:34:02;20.70;99.90
8676;DHT22;4375;52.486;13.424;2023-09-19T15:36:29;20.70;99.90
8676;DHT22;4375;52.486;13.424;2023-09-19T15:41:30;20.60;99.90
8676;DHT22;4375;52.486;13.424;2023-09-19T15:43:57;20.50;99.90
8676;DHT22;4375;52.486;13.424;2023-09-19T15:46:25;20.50;99.90
8676;DHT22;4375;52.486;13.424;2023-09-19T15:48:53;20.60;99.90
8676;DHT22;4375;52.486;13.424;2023-09-19T15:51:25;20.50;99.90
8676;DHT22;4375;52.486;13.424;2023-09-19T15:54:16;20.50;99.90
8676;DHT22;4375;52.486;13.424;2023-09-19T15:56:45;20.50;99.90
8676;DHT22;4375;52.486;13.424;2023-09-19T15:59:11;20.50;99.90
8676;DHT22;4375;52.486;13.424;2023-09-19T16:01:44;20.50;99.90
8676;DHT22;4375;52.486;13.424;2023-09-19T16:04:17;20.50;99.90
8676;DHT22;4375;52.486;13.424;2023-09-19T16:06:46;20.50;99.90
8676;DHT22;4375;52.486;13.424;2023-09-19T16:09:12;20.40;99.90
8676;DHT22;4375;52.486;13.424;2023-09-19T16:11:40;20.40;99.90
8676;DHT22;4375;52.486;13.424;2023-09-19T16:14:09;20.40;99.90
8676;DHT22;4375;52.486;13.424;2023-09-19T16:16:38;20.30;99.90
8676;DHT22;4375;52.486;13.424;2023-09-19T16:19:07;20.30;99.90
8676;DHT22;4375;52.486;13.424;2023-09-19T16:21:37;20.30;99.90
8676;DHT22;4375;52.486;13.424;2023-09-19T16:24:05;20.20;99.90
8676;DHT22;4375;52.486;13.424;2023-09-19T16:26:32;20.20;99.90
8676;DHT22;4375;52.486;13.424;2023-09-19T16:28:58;20.20;99.90
8676;DHT22;4375;52.486;13.424;2023-09-19T16:31:30;20.10;99.90
8676;DHT22;4375;52.486;13.424;2023-09-19T16:34:04;20.10;99.90
8676;DHT22;4375;52.486;13.424;2023-09-19T16:36:32;20.00;99.90
8676;DHT22;4375;52.486;13.424;2023-09-19T16:38:58;20.00;99.90
8676;DHT22;4375;52.486;13.424;2023-09-19T16:41:25;20.00;99.90
8676;DHT22;4375;52.486;13.424;2023-09-19T16:43:51;19.90;99.90
8676;DHT22;4375;52.486;13.424;2023-09-19T16:46:17;19.90;99.90
8676;DHT22;4375;52.486;13.424;2023-09-19T16:48:45;19.80;99.90